sensor_id;sensor_type;location;lat;lon;timestamp;pressure;altitude;pressure_sealevel;temperature;humidity
37852;BME280;23691;52.486;4.650;2023-03-13T00:01:59;100004.16;;;9.81;90.55
37852;BME280;23691;52.486;4.650;2023-03-13T00:04:25;99997.16;;;9.80;90.52
37852;BME280;23691;52.486;4.650;2023-03-13T00:06:50;99974.78;;;9.81;90.46
37852;BME280;23691;52.486;4.650;2023-03-13T00:09:16;99970.63;;;9.78;90.47
37852;BME280;23691;52.486;4.650;2023-03-13T00:11:43;99967.94;;;9.78;90.70
37852;BME280;23691;52.486;4.650;2023-03-13T00:14:08;99955.63;;;9.77;90.74
37852;BME280;23691;52.486;4.650;2023-03-13T00:16:34;99955.41;;;9.79;90.83
37852;BME280;23691;52.486;4.650;2023-03-13T00:19:03;99947.59;;;9.77;90.93
37852;BME280;23691;52.486;4.650;2023-03-13T00:21:29;99935.91;;;9.78;91.01
37852;BME280;23691;52.486;4.650;2023-03-13T00:23:54;99929.53;;;9.79;90.95
37852;BME280;23691;52.486;4.650;2023-03-13T00:26:22;99925.03;;;9.80;90.80
37852;BME280;23691;52.486;4.650;2023-03-13T00:28:48;99906.13;;;9.81;90.78
37852;BME280;23691;52.486;4.650;2023-03-13T00:31:19;99893.81;;;9.80;91.09
37852;BME280;23691;52.486;4.650;2023-03-13T00:33:46;99891.13;;;9.80;91.12
37852;BME280;23691;52.486;4.650;2023-03-13T00:36:24;99885.78;;;9.80;91.13
37852;BME280;23691;52.486;4.650;2023-03-13T00:38:50;99881.09;;;9.82;91.35
37852;BME280;23691;52.486;4.650;2023-03-13T00:41:22;99877.56;;;9.82;91.48
37852;BME280;23691;52.486;4.650;2023-03-13T00:43:48;99869.75;;;9.80;91.72
37852;BME280;23691;52.486;4.650;2023-03-13T00:46:15;99869.41;;;9.83;91.92
37852;BME280;23691;52.486;4.650;2023-03-13T00:48:41;99855.00;;;9.84;91.99
37852;BME280;23691;52.486;4.650;2023-03-13T00:51:07;99850.53;;;9.85;92.01
37852;BME280;23691;52.486;4.650;2023-03-13T00:53:33;99848.66;;;9.85;92.23
37852;BME280;23691;52.486;4.650;2023-03-13T00:56:09;99844.97;;;9.86;92.25
37852;BME280;23691;52.486;4.650;2023-03-13T00:58:38;99830.63;;;9.87;92.66
37852;BME280;23691;52.486;4.650;2023-03-13T01:01:16;99818.53;;;9.92;92.86
37852;BME280;23691;52.486;4.650;2023-03-13T01:03:45;99802.31;;;9.93;92.85
37852;BME280;23691;52.486;4.650;2023-03-13T01:06:13;99778.09;;;9.95;92.82
37852;BME280;23691;52.486;4.650;2023-03-13T01:08:39;99770.69;;;9.97;93.09
37852;BME280;23691;52.486;4.650;2023-03-13T01:11:17;99763.16;;;10.00;92.85
37852;BME280;23691;52.486;4.650;2023-03-13T01:13:43;99776.34;;;10.02;93.28
37852;BME280;23691;52.486;4.650;2023-03-13T01:16:11;99753.75;;;10.04;93.50
37852;BME280;23691;52.486;4.650;2023-03-13T01:18:39;99759.09;;;10.04;93.42
37852;BME280;23691;52.486;4.650;2023-03-13T01:21:06;99749.03;;;10.06;93.73
37852;BME280;23691;52.486;4.650;2023-03-13T01:23:31;99759.38;;;10.09;93.83
37852;BME280;23691;52.486;4.650;2023-03-13T01:25:57;99742.13;;;10.12;93.87
37852;BME280;23691;52.486;4.650;2023-03-13T01:28:23;99738.25;;;10.15;94.48
37852;BME280;23691;52.486;4.650;2023-03-13T01:30:49;99736.84;;;10.19;94.81
37852;BME280;23691;52.486;4.650;2023-03-13T01:33:15;99734.63;;;10.22;94.93
37852;BME280;23691;52.486;4.650;2023-03-13T01:35:40;99735.75;;;10.28;94.87
37852;BME280;23691;52.486;4.650;2023-03-13T01:38:06;99719.31;;;10.31;95.20
37852;BME280;23691;52.486;4.650;2023-03-13T01:40:47;99717.75;;;10.37;95.59
37852;BME280;23691;52.486;4.650;2023-03-13T01:43:23;99715.50;;;10.40;95.59
37852;BME280;23691;52.486;4.650;2023-03-13T01:49:06;99693.53;;;10.45;96.38
37852;BME280;23691;52.486;4.650;2023-03-13T01:54:18;99682.69;;;10.53;96.86
37852;BME280;23691;52.486;4.650;2023-03-13T01:56:52;99678.44;;;10.59;97.06
37852;BME280;23691;52.486;4.650;2023-03-13T01:59:25;99672.53;;;10.63;97.35
37852;BME280;23691;52.486;4.650;2023-03-13T02:01:55;99655.88;;;10.68;97.77
37852;BME280;23691;52.486;4.650;2023-03-13T02:04:22;99648.31;;;10.71;98.17
37852;BME280;23691;52.486;4.650;2023-03-13T02:06:51;99639.69;;;10.76;98.63
37852;BME280;23691;52.486;4.650;2023-03-13T02:09:22;99637.03;;;10.83;98.72
37852;BME280;23691;52.486;4.650;2023-03-13T02:12:10;99630.09;;;10.88;99.08
37852;BME280;23691;52.486;4.650;2023-03-13T02:14:40;99634.63;;;10.88;99.02
37852;BME280;23691;52.486;4.650;2023-03-13T02:17:06;99634.44;;;10.89;99.46
37852;BME280;23691;52.486;4.650;2023-03-13T02:19:49;99603.78;;;10.92;99.64
37852;BME280;23691;52.486;4.650;2023-03-13T02:28:00;99597.19;;;10.94;100.00
37852;BME280;23691;52.486;4.650;2023-03-13T02:30:27;99601.72;;;10.94;100.00
37852;BME280;23691;52.486;4.650;2023-03-13T02:32:53;99602.38;;;10.96;100.00
37852;BME280;23691;52.486;4.650;2023-03-13T02:35:20;99603.19;;;10.96;100.00
37852;BME280;23691;52.486;4.650;2023-03-13T02:37:50;99588.16;;;10.95;100.00
37852;BME280;23691;52.486;4.650;2023-03-13T02:40:22;99586.31;;;10.96;100.00
37852;BME280;23691;52.486;4.650;2023-03-13T02:42:49;99594.34;;;10.96;100.00
37852;BME280;23691;52.486;4.650;2023-03-13T02:45:16;99586.50;;;10.94;100.00
37852;BME280;23691;52.486;4.650;2023-03-13T02:47:42;99588.53;;;10.92;100.00
37852;BME280;23691;52.486;4.650;2023-03-13T02:50:08;99566.94;;;10.94;100.00
37852;BME280;23691;52.486;4.650;2023-03-13T02:52:51;99562.63;;;10.93;100.00
37852;BME280;23691;52.486;4.650;2023-03-13T02:55:23;99579.69;;;10.92;100.00
37852;BME280;23691;52.486;4.650;2023-03-13T02:57:50;99570.19;;;10.89;100.00
37852;BME280;23691;52.486;4.650;2023-03-13T03:00:16;99586.66;;;10.86;100.00
37852;BME280;23691;52.486;4.650;2023-03-13T03:02:43;99569.78;;;10.86;100.00
37852;BME280;23691;52.486;4.650;2023-03-13T03:05:09;99595.91;;;10.84;100.00
37852;BME280;23691;52.486;4.650;2023-03-13T03:07:35;99571.81;;;10.84;100.00
37852;BME280;23691;52.486;4.650;2023-03-13T03:10:00;99586.44;;;10.81;100.00
37852;BME280;23691;52.486;4.650;2023-03-13T03:12:26;99563.34;;;10.80;100.00
37852;BME280;23691;52.486;4.650;2023-03-13T03:14:51;99558.84;;;10.81;100.00
37852;BME280;23691;52.486;4.650;2023-03-13T03:17:17;99556.19;;;10.81;100.00
37852;BME280;23691;52.486;4.650;2023-03-13T03:19:42;99552.28;;;10.83;100.00
37852;BME280;23691;52.486;4.650;2023-03-13T03:22:07;99562.97;;;10.83;100.00
37852;BME280;23691;52.486;4.650;2023-03-13T03:24:33;99568.13;;;10.85;100.00
37852;BME280;23691;52.486;4.650;2023-03-13T03:26:58;99558.44;;;10.84;100.00
37852;BME280;23691;52.486;4.650;2023-03-13T03:29:23;99556.78;;;10.83;100.00
37852;BME280;23691;52.486;4.650;2023-03-13T03:31:49;99550.44;;;10.84;100.00
37852;BME280;23691;52.486;4.650;2023-03-13T03:34:14;99555.78;;;10.84;100.00
37852;BME280;23691;52.486;4.650;2023-03-13T03:36:40;99534.16;;;10.85;100.00
37852;BME280;23691;52.486;4.650;2023-03-13T03:39:05;99537.47;;;10.87;100.00
37852;BME280;23691;52.486;4.650;2023-03-13T03:41:31;99543.66;;;10.88;100.00
37852;BME280;23691;52.486;4.650;2023-03-13T03:43:56;99528.44;;;10.88;100.00
37852;BME280;23691;52.486;4.650;2023-03-13T03:46:21;99539.13;;;10.88;100.00
37852;BME280;23691;52.486;4.650;2023-03-13T03:48:47;99543.66;;;10.88;100.00
37852;BME280;23691;52.486;4.650;2023-03-13T03:51:12;99528.22;;;10.90;100.00
37852;BME280;23691;52.486;4.650;2023-03-13T03:53:38;99541.81;;;10.88;100.00
37852;BME280;23691;52.486;4.650;2023-03-13T03:56:03;99516.69;;;10.89;100.00
37852;BME280;23691;52.486;4.650;2023-03-13T03:58:29;99504.97;;;10.90;100.00
37852;BME280;23691;52.486;4.650;2023-03-13T04:00:56;99532.56;;;10.91;100.00
37852;BME280;23691;52.486;4.650;2023-03-13T04:03:21;99522.84;;;10.90;100.00
37852;BME280;23691;52.486;4.650;2023-03-13T04:05:47;99531.75;;;10.90;100.00
37852;BME280;23691;52.486;4.650;2023-03-13T04:08:12;99533.38;;;10.91;100.00
37852;BME280;23691;52.486;4.650;2023-03-13T04:10:38;99511.97;;;10.91;100.00
37852;BME280;23691;52.486;4.650;2023-03-13T04:13:04;99515.88;;;10.89;100.00
37852;BME280;23691;52.486;4.650;2023-03-13T04:15:29;99532.75;;;10.89;100.00
37852;BME280;23691;52.486;4.650;2023-03-13T04:17:55;99538.09;;;10.89;100.00
37852;BME280;23691;52.486;4.650;2023-03-13T04:20:20;99523.50;;;10.92;100.00
37852;BME280;23691;52.486;4.650;2023-03-13T04:22:45;99525.16;;;10.93;100.00
37852;BME280;23691;52.486;4.650;2023-03-13T04:25:11;99528.44;;;10.95;100.00
37852;BME280;23691;52.486;4.650;2023-03-13T04:27:36;99531.38;;;11.00;100.00
37852;BME280;23691;52.486;4.650;2023-03-13T04:30:02;99510.97;;;10.99;100.00
37852;BME280;23691;52.486;4.650;2023-03-13T04:32:28;99518.00;;;11.00;100.00
37852;BME280;23691;52.486;4.650;2023-03-13T04:34:54;99510.16;;;10.99;100.00
37852;BME280;23691;52.486;4.650;2023-03-13T04:37:19;99503.97;;;10.98;100.00
37852;BME280;23691;52.486;4.650;2023-03-13T04:39:44;99500.44;;;10.98;100.00
37852;BME280;23691;52.486;4.650;2023-03-13T04:42:10;99510.78;;;11.01;100.00
37852;BME280;23691;52.486;4.650;2023-03-13T04:44:36;99485.06;;;11.06;100.00
37852;BME280;23691;52.486;4.650;2023-03-13T04:47:01;99484.25;;;11.06;100.00
37852;BME280;23691;52.486;4.650;2023-03-13T04:49:27;99458.91;;;11.08;100.00
37852;BME280;23691;52.486;4.650;2023-03-13T04:51:52;99471.72;;;11.13;100.00
37852;BME280;23691;52.486;4.650;2023-03-13T04:54:17;99474.16;;;11.14;100.00
37852;BME280;23691;52.486;4.650;2023-03-13T04:56:43;99466.13;;;11.14;100.00
37852;BME280;23691;52.486;4.650;2023-03-13T04:59:10;99456.47;;;11.13;100.00
37852;BME280;23691;52.486;4.650;2023-03-13T05:01:36;99457.50;;;11.12;100.00
37852;BME280;23691;52.486;4.650;2023-03-13T05:04:01;99471.72;;;11.13;100.00
37852;BME280;23691;52.486;4.650;2023-03-13T05:06:27;99468.81;;;11.14;100.00
37852;BME280;23691;52.486;4.650;2023-03-13T05:08:52;99451.09;;;11.13;100.00
37852;BME280;23691;52.486;4.650;2023-03-13T05:11:18;99456.66;;;11.12;100.00
37852;BME280;23691;52.486;4.650;2023-03-13T05:13:43;99466.13;;;11.14;100.00
37852;BME280;23691;52.486;4.650;2023-03-13T05:16:08;99457.09;;;11.15;100.00
37852;BME280;23691;52.486;4.650;2023-03-13T05:18:34;99458.72;;;11.16;100.00
37852;BME280;23691;52.486;4.650;2023-03-13T05:21:00;99455.88;;;11.18;100.00
37852;BME280;23691;52.486;4.650;2023-03-13T05:23:26;99453.19;;;11.18;100.00
37852;BME280;23691;52.486;4.650;2023-03-13T05:25:51;99451.94;;;11.21;99.86
37852;BME280;23691;52.486;4.650;2023-03-13T05:28:16;99454.63;;;11.21;98.99
37852;BME280;23691;52.486;4.650;2023-03-13T05:30:42;99451.94;;;11.21;98.82
37852;BME280;23691;52.486;4.650;2023-03-13T05:33:07;99448.47;;;11.20;98.59
37852;BME280;23691;52.486;4.650;2023-03-13T05:35:33;99459.34;;;11.18;98.29
37852;BME280;23691;52.486;4.650;2023-03-13T05:37:58;99451.31;;;11.18;97.68
37852;BME280;23691;52.486;4.650;2023-03-13T05:40:23;99427.22;;;11.18;97.54
37852;BME280;23691;52.486;4.650;2023-03-13T05:42:49;99467.81;;;11.15;97.21
37852;BME280;23691;52.486;4.650;2023-03-13T05:45:14;99421.25;;;11.16;96.84
37852;BME280;23691;52.486;4.650;2023-03-13T05:47:39;99416.94;;;11.15;96.08
37852;BME280;23691;52.486;4.650;2023-03-13T05:50:06;99431.13;;;11.16;95.56
37852;BME280;23691;52.486;4.650;2023-03-13T05:52:32;99423.94;;;11.16;95.18
37852;BME280;23691;52.486;4.650;2023-03-13T05:54:58;99428.28;;;11.17;95.29
37852;BME280;23691;52.486;4.650;2023-03-13T05:57:24;99424.97;;;11.15;94.41
37852;BME280;23691;52.486;4.650;2023-03-13T05:59:49;99424.34;;;11.13;94.08
37852;BME280;23691;52.486;4.650;2023-03-13T06:02:15;99427.03;;;11.13;93.72
37852;BME280;23691;52.486;4.650;2023-03-13T06:04:40;99417.94;;;11.14;93.56
37852;BME280;23691;52.486;4.650;2023-03-13T06:07:05;99422.72;;;11.12;93.06
37852;BME280;23691;52.486;4.650;2023-03-13T06:09:31;99417.34;;;11.12;93.05
37852;BME280;23691;52.486;4.650;2023-03-13T06:11:56;99411.78;;;11.14;92.80
37852;BME280;23691;52.486;4.650;2023-03-13T06:14:22;99405.59;;;11.13;92.65
37852;BME280;23691;52.486;4.650;2023-03-13T06:16:47;99426.19;;;11.13;91.88
37852;BME280;23691;52.486;4.650;2023-03-13T06:19:12;99421.03;;;11.11;92.09
37852;BME280;23691;52.486;4.650;2023-03-13T06:21:38;99425.56;;;11.11;91.92
37852;BME280;23691;52.486;4.650;2023-03-13T06:24:04;99430.31;;;11.09;92.07
37852;BME280;23691;52.486;4.650;2023-03-13T06:26:29;99411.34;;;11.04;92.16
37852;BME280;23691;52.486;4.650;2023-03-13T06:28:55;99412.38;;;11.03;92.25
37852;BME280;23691;52.486;4.650;2023-03-13T06:31:20;99426.78;;;11.02;92.83
37852;BME280;23691;52.486;4.650;2023-03-13T06:33:46;99439.53;;;11.00;93.11
37852;BME280;23691;52.486;4.650;2023-03-13T06:36:12;99431.72;;;10.98;93.52
37852;BME280;23691;52.486;4.650;2023-03-13T06:38:37;99429.44;;;10.95;93.78
37852;BME280;23691;52.486;4.650;2023-03-13T06:41:03;99426.56;;;10.96;94.16
37852;BME280;23691;52.486;4.650;2023-03-13T06:43:28;99443.66;;;10.95;94.61
37852;BME280;23691;52.486;4.650;2023-03-13T06:45:54;99425.94;;;10.94;94.98
37852;BME280;23691;52.486;4.650;2023-03-13T06:48:19;99431.09;;;10.96;95.05
37852;BME280;23691;52.486;4.650;2023-03-13T06:50:47;99432.09;;;10.95;95.72
37852;BME280;23691;52.486;4.650;2023-03-13T06:53:14;99432.09;;;10.95;96.26
37852;BME280;23691;52.486;4.650;2023-03-13T06:55:41;99423.88;;;10.96;96.40
37852;BME280;23691;52.486;4.650;2023-03-13T06:58:06;99433.56;;;10.98;96.42
37852;BME280;23691;52.486;4.650;2023-03-13T07:00:32;99431.91;;;10.96;96.86
37852;BME280;23691;52.486;4.650;2023-03-13T07:02:58;99432.53;;;10.99;97.07
37852;BME280;23691;52.486;4.650;2023-03-13T07:05:24;99433.56;;;11.04;97.09
37852;BME280;23691;52.486;4.650;2023-03-13T07:07:49;99435.25;;;11.05;97.15
37852;BME280;23691;52.486;4.650;2023-03-13T07:10:15;99440.38;;;11.07;97.15
37852;BME280;23691;52.486;4.650;2023-03-13T07:12:40;99439.97;;;11.10;97.21
37852;BME280;23691;52.486;4.650;2023-03-13T07:15:06;99431.75;;;11.11;97.19
37852;BME280;23691;52.486;4.650;2023-03-13T07:17:32;99428.66;;;11.14;97.41
37852;BME280;23691;52.486;4.650;2023-03-13T07:19:57;99432.19;;;11.15;97.26
37852;BME280;23691;52.486;4.650;2023-03-13T07:22:23;99416.13;;;11.15;97.51
37852;BME280;23691;52.486;4.650;2023-03-13T07:24:48;99436.91;;;11.13;97.13
37852;BME280;23691;52.486;4.650;2023-03-13T07:27:14;99444.94;;;11.13;97.01
37852;BME280;23691;52.486;4.650;2023-03-13T07:29:41;99427.22;;;11.12;96.91
37852;BME280;23691;52.486;4.650;2023-03-13T07:32:07;99420.63;;;11.14;96.94
37852;BME280;23691;52.486;4.650;2023-03-13T07:34:32;99419.81;;;11.14;96.63
37852;BME280;23691;52.486;4.650;2023-03-13T07:36:57;99424.97;;;11.15;96.66
37852;BME280;23691;52.486;4.650;2023-03-13T07:39:23;99420.84;;;11.20;96.84
37852;BME280;23691;52.486;4.650;2023-03-13T07:41:49;99421.06;;;11.25;96.70
37852;BME280;23691;52.486;4.650;2023-03-13T07:44:14;99423.13;;;11.29;96.61
37852;BME280;23691;52.486;4.650;2023-03-13T07:46:39;99439.41;;;11.28;96.66
37852;BME280;23691;52.486;4.650;2023-03-13T07:49:05;99411.19;;;11.32;96.45
37852;BME280;23691;52.486;4.650;2023-03-13T07:51:30;99412.63;;;11.41;95.95
37852;BME280;23691;52.486;4.650;2023-03-13T07:53:56;99402.75;;;11.48;95.91
37852;BME280;23691;52.486;4.650;2023-03-13T07:56:22;99401.72;;;11.49;95.58
37852;BME280;23691;52.486;4.650;2023-03-13T07:58:50;99400.28;;;11.53;95.12
37852;BME280;23691;52.486;4.650;2023-03-13T08:01:21;99401.31;;;11.59;94.70
37852;BME280;23691;52.486;4.650;2023-03-13T08:03:47;99394.31;;;11.65;93.93
37852;BME280;23691;52.486;4.650;2023-03-13T08:06:19;99404.81;;;11.79;93.24
37852;BME280;23691;52.486;4.650;2023-03-13T08:08:45;99394.50;;;11.83;92.85
37852;BME280;23691;52.486;4.650;2023-03-13T08:11:13;99381.09;;;11.83;92.47
37852;BME280;23691;52.486;4.650;2023-03-13T08:13:39;99381.91;;;11.83;92.02
37852;BME280;23691;52.486;4.650;2023-03-13T08:16:15;99373.28;;;11.88;91.79
37852;BME280;23691;52.486;4.650;2023-03-13T08:18:47;99378.66;;;11.88;91.19
37852;BME280;23691;52.486;4.650;2023-03-13T08:21:15;99377.81;;;11.94;90.84
37852;BME280;23691;52.486;4.650;2023-03-13T08:23:41;99380.28;;;11.96;90.78
37852;BME280;23691;52.486;4.650;2023-03-13T08:26:09;99359.03;;;12.01;90.38
37852;BME280;23691;52.486;4.650;2023-03-13T08:28:35;99372.84;;;12.05;90.52
37852;BME280;23691;52.486;4.650;2023-03-13T08:33:36;99363.75;;;12.06;90.47
37852;BME280;23691;52.486;4.650;2023-03-13T08:36:35;99349.72;;;12.23;90.01
37852;BME280;23691;52.486;4.650;2023-03-13T08:39:06;99354.44;;;12.28;89.74
37852;BME280;23691;52.486;4.650;2023-03-13T08:41:35;99334.19;;;12.39;89.28
37852;BME280;23691;52.486;4.650;2023-03-13T08:44:02;99358.50;;;12.44;89.20
37852;BME280;23691;52.486;4.650;2023-03-13T08:46:29;99371.53;;;12.40;88.72
37852;BME280;23691;52.486;4.650;2023-03-13T08:48:55;99349.22;;;12.40;88.79
37852;BME280;23691;52.486;4.650;2023-03-13T08:51:23;99350.47;;;12.37;88.17
37852;BME280;23691;52.486;4.650;2023-03-13T08:53:48;99340.34;;;12.39;87.89
37852;BME280;23691;52.486;4.650;2023-03-13T08:56:17;99322.16;;;12.48;87.64
37852;BME280;23691;52.486;4.650;2023-03-13T08:58:43;99328.28;;;12.62;86.58
37852;BME280;23691;52.486;4.650;2023-03-13T09:01:13;99340.59;;;12.76;86.18
37852;BME280;23691;52.486;4.650;2023-03-13T09:03:39;99309.66;;;12.67;85.25
37852;BME280;23691;52.486;4.650;2023-03-13T09:06:05;99316.72;;;12.61;84.76
37852;BME280;23691;52.486;4.650;2023-03-13T09:08:31;99343.56;;;12.61;84.35
37852;BME280;23691;52.486;4.650;2023-03-13T09:10:59;99325.84;;;12.54;83.57
37852;BME280;23691;52.486;4.650;2023-03-13T09:13:25;99314.31;;;12.53;83.51
37852;BME280;23691;52.486;4.650;2023-03-13T09:15:58;99312.22;;;12.55;83.44
37852;BME280;23691;52.486;4.650;2023-03-13T09:18:24;99324.16;;;12.59;82.70
37852;BME280;23691;52.486;4.650;2023-03-13T09:20:50;99317.53;;;12.62;82.18
37852;BME280;23691;52.486;4.650;2023-03-13T09:23:16;99315.91;;;12.61;81.26
37852;BME280;23691;52.486;4.650;2023-03-13T09:25:42;99312.63;;;12.59;81.29
37852;BME280;23691;52.486;4.650;2023-03-13T09:28:07;99325.59;;;12.62;80.69
37852;BME280;23691;52.486;4.650;2023-03-13T09:30:33;99306.16;;;12.66;80.41
37852;BME280;23691;52.486;4.650;2023-03-13T09:32:58;99304.91;;;12.69;79.97
37852;BME280;23691;52.486;4.650;2023-03-13T09:35:23;99322.84;;;12.75;79.89
37852;BME280;23691;52.486;4.650;2023-03-13T09:37:49;99320.94;;;12.82;79.82
37852;BME280;23691;52.486;4.650;2023-03-13T09:40:16;99319.88;;;12.90;79.26
37852;BME280;23691;52.486;4.650;2023-03-13T09:42:50;99283.09;;;12.91;79.24
37852;BME280;23691;52.486;4.650;2023-03-13T09:45:24;99314.03;;;13.00;78.78
37852;BME280;23691;52.486;4.650;2023-03-13T09:48:01;99296.41;;;13.04;77.93
37852;BME280;23691;52.486;4.650;2023-03-13T09:50:33;99292.72;;;13.05;78.00
37852;BME280;23691;52.486;4.650;2023-03-13T09:53:14;99290.63;;;13.07;77.49
37852;BME280;23691;52.486;4.650;2023-03-13T09:55:41;99276.97;;;13.08;77.68
37852;BME280;23691;52.486;4.650;2023-03-13T09:58:13;99275.50;;;13.13;77.57
37852;BME280;23691;52.486;4.650;2023-03-13T10:00:45;99284.16;;;13.15;77.43
37852;BME280;23691;52.486;4.650;2023-03-13T10:03:26;99270.28;;;13.18;77.34
37852;BME280;23691;52.486;4.650;2023-03-13T10:05:58;99245.69;;;13.21;77.62
37852;BME280;23691;52.486;4.650;2023-03-13T10:08:25;99265.88;;;13.30;77.54
37852;BME280;23691;52.486;4.650;2023-03-13T10:10:56;99273.50;;;13.33;77.35
37852;BME280;23691;52.486;4.650;2023-03-13T10:13:32;99245.38;;;13.36;77.03
37852;BME280;23691;52.486;4.650;2023-03-13T10:16:00;99250.72;;;13.36;77.22
37852;BME280;23691;52.486;4.650;2023-03-13T10:18:29;99265.13;;;13.41;76.83
37852;BME280;23691;52.486;4.650;2023-03-13T10:21:01;99265.31;;;13.46;76.69
37852;BME280;23691;52.486;4.650;2023-03-13T10:23:48;99241.50;;;13.50;76.51
37852;BME280;23691;52.486;4.650;2023-03-13T10:26:18;99267.41;;;13.63;76.63
37852;BME280;23691;52.486;4.650;2023-03-13T10:28:45;99256.00;;;13.67;75.88
37852;BME280;23691;52.486;4.650;2023-03-13T10:31:21;99254.28;;;13.73;75.56
37852;BME280;23691;52.486;4.650;2023-03-13T10:33:51;99268.31;;;13.75;75.19
37852;BME280;23691;52.486;4.650;2023-03-13T10:36:18;99249.88;;;13.79;74.87
37852;BME280;23691;52.486;4.650;2023-03-13T10:41:43;99233.38;;;13.93;73.52
37852;BME280;23691;52.486;4.650;2023-03-13T10:44:16;99250.78;;;13.91;72.55
37852;BME280;23691;52.486;4.650;2023-03-13T10:46:44;99251.53;;;13.98;72.55
37852;BME280;23691;52.486;4.650;2023-03-13T10:49:21;99245.63;;;14.08;71.87
37852;BME280;23691;52.486;4.650;2023-03-13T10:52:00;99241.13;;;14.20;70.94
37852;BME280;23691;52.486;4.650;2023-03-13T10:54:32;99256.28;;;14.45;70.79
37852;BME280;23691;52.486;4.650;2023-03-13T10:59:45;99266.34;;;14.49;69.10
37852;BME280;23691;52.486;4.650;2023-03-13T11:04:45;99264.13;;;14.76;68.34
37852;BME280;23691;52.486;4.650;2023-03-13T11:07:15;99289.97;;;14.66;67.93
37852;BME280;23691;52.486;4.650;2023-03-13T11:09:56;99304.03;;;14.49;68.41
37852;BME280;23691;52.486;4.650;2023-03-13T11:12:22;99300.19;;;14.27;68.44
37852;BME280;23691;52.486;4.650;2023-03-13T11:14:47;99280.84;;;14.18;68.63
37852;BME280;23691;52.486;4.650;2023-03-13T11:17:30;99287.00;;;14.37;68.41
37852;BME280;23691;52.486;4.650;2023-03-13T11:20:43;99303.28;;;14.42;67.70
37852;BME280;23691;52.486;4.650;2023-03-13T11:23:52;99264.22;;;14.39;67.47
37852;BME280;23691;52.486;4.650;2023-03-13T11:28:57;99282.63;;;14.43;67.05
37852;BME280;23691;52.486;4.650;2023-03-13T11:31:32;99278.94;;;14.37;67.03
37852;BME280;23691;52.486;4.650;2023-03-13T11:34:14;99280.91;;;14.30;67.53
37852;BME280;23691;52.486;4.650;2023-03-13T11:36:56;99274.34;;;14.26;67.46
37852;BME280;23691;52.486;4.650;2023-03-13T11:51:05;99276.69;;;14.52;66.13
37852;BME280;23691;52.486;4.650;2023-03-13T12:02:34;99262.56;;;14.57;63.93
37852;BME280;23691;52.486;4.650;2023-03-13T12:05:14;99241.03;;;14.57;64.01
37852;BME280;23691;52.486;4.650;2023-03-13T12:07:48;99233.91;;;14.63;63.69
37852;BME280;23691;52.486;4.650;2023-03-13T12:10:19;99224.19;;;14.62;63.31
37852;BME280;23691;52.486;4.650;2023-03-13T12:13:06;99205.94;;;14.64;62.96
37852;BME280;23691;52.486;4.650;2023-03-13T12:15:41;99209.25;;;14.77;62.49
37852;BME280;23691;52.486;4.650;2023-03-13T12:18:40;99231.41;;;15.03;61.59
37852;BME280;23691;52.486;4.650;2023-03-13T12:21:25;99210.69;;;15.15;60.36
37852;BME280;23691;52.486;4.650;2023-03-13T12:24:02;99250.63;;;15.18;59.95
37852;BME280;23691;52.486;4.650;2023-03-13T12:29:59;99214.41;;;14.91;59.43
37852;BME280;23691;52.486;4.650;2023-03-13T12:32:39;99219.09;;;14.84;60.00
37852;BME280;23691;52.486;4.650;2023-03-13T12:43:19;99219.22;;;14.77;60.60
37852;BME280;23691;52.486;4.650;2023-03-13T12:46:03;99222.72;;;14.77;60.99
37852;BME280;23691;52.486;4.650;2023-03-13T12:48:57;99214.97;;;14.81;60.28
37852;BME280;23691;52.486;4.650;2023-03-13T13:00:41;99207.66;;;15.23;58.88
37852;BME280;23691;52.486;4.650;2023-03-13T13:03:23;99206.00;;;15.22;58.76
37852;BME280;23691;52.486;4.650;2023-03-13T13:06:17;99184.56;;;15.16;59.00
37852;BME280;23691;52.486;4.650;2023-03-13T13:16:45;99204.81;;;14.95;58.89
37852;BME280;23691;52.486;4.650;2023-03-13T13:24:54;99171.09;;;14.92;59.10
37852;BME280;23691;52.486;4.650;2023-03-13T13:29:58;99203.66;;;14.91;58.89
37852;BME280;23691;52.486;4.650;2023-03-13T13:32:40;99193.25;;;14.94;59.35
37852;BME280;23691;52.486;4.650;2023-03-13T13:37:40;99190.78;;;14.93;59.14
37852;BME280;23691;52.486;4.650;2023-03-13T13:42:56;99178.81;;;14.89;59.89
37852;BME280;23691;52.486;4.650;2023-03-13T13:45:34;99172.63;;;14.88;60.04
37852;BME280;23691;52.486;4.650;2023-03-13T13:48:22;99176.59;;;14.86;59.84
37852;BME280;23691;52.486;4.650;2023-03-13T13:53:53;99170.03;;;14.93;60.04
37852;BME280;23691;52.486;4.650;2023-03-13T13:56:41;99168.41;;;14.92;60.00
37852;BME280;23691;52.486;4.650;2023-03-13T14:01:46;99151.88;;;14.89;59.90
37852;BME280;23691;52.486;4.650;2023-03-13T14:04:15;99163.25;;;14.79;59.50
37852;BME280;23691;52.486;4.650;2023-03-13T14:06:46;99145.56;;;14.71;59.54
37852;BME280;23691;52.486;4.650;2023-03-13T14:12:29;99129.53;;;14.65;60.13
37852;BME280;23691;52.486;4.650;2023-03-13T14:17:44;99141.59;;;14.62;59.86
37852;BME280;23691;52.486;4.650;2023-03-13T14:22:49;99156.91;;;14.62;60.08
37852;BME280;23691;52.486;4.650;2023-03-13T14:25:15;99125.78;;;14.66;60.11
37852;BME280;23691;52.486;4.650;2023-03-13T14:27:46;99135.16;;;14.63;60.16
37852;BME280;23691;52.486;4.650;2023-03-13T14:30:14;99131.75;;;14.56;59.67
37852;BME280;23691;52.486;4.650;2023-03-13T14:32:40;99126.31;;;14.44;59.56
37852;BME280;23691;52.486;4.650;2023-03-13T14:35:07;99137.41;;;14.36;59.81
37852;BME280;23691;52.486;4.650;2023-03-13T14:40:30;99146.03;;;14.26;60.48
37852;BME280;23691;52.486;4.650;2023-03-13T14:42:59;99138.91;;;14.20;60.45
37852;BME280;23691;52.486;4.650;2023-03-13T14:45:30;99133.97;;;14.17;60.42
37852;BME280;23691;52.486;4.650;2023-03-13T14:48:12;99131.88;;;14.19;60.48
37852;BME280;23691;52.486;4.650;2023-03-13T14:50:38;99149.06;;;14.18;60.66
37852;BME280;23691;52.486;4.650;2023-03-13T14:53:17;99140.41;;;14.16;60.26